createdAt,value
2018-11-10T00:00:36.387Z,8.9
2018-11-10T00:01:36.363Z,8.9
2018-11-10T00:02:36.303Z,8.88
2018-11-10T00:03:36.364Z,8.89
2018-11-10T00:04:36.404Z,8.88
2018-11-10T00:05:36.328Z,8.86
2018-11-10T00:06:36.328Z,8.87
2018-11-10T00:07:36.368Z,8.85
2018-11-10T00:08:36.315Z,8.89
2018-11-10T00:09:36.316Z,8.89
2018-11-10T00:10:36.294Z,8.9
2018-11-10T00:11:36.283Z,8.89
2018-11-10T00:12:36.775Z,8.9
2018-11-10T00:13:36.291Z,8.9
2018-11-10T00:14:36.395Z,8.86
2018-11-10T00:15:36.355Z,8.9
2018-11-10T00:16:37.342Z,8.83
2018-11-10T00:17:36.509Z,8.82
2018-11-10T00:18:36.439Z,8.84
2018-11-10T00:19:36.311Z,8.82
2018-11-10T00:20:36.276Z,8.78
2018-11-10T00:21:36.372Z,8.83
2018-11-10T00:22:36.288Z,8.84
2018-11-10T00:23:36.412Z,8.85
2018-11-10T00:24:36.469Z,8.87
2018-11-10T00:25:36.308Z,8.87
2018-11-10T00:26:36.314Z,8.88
2018-11-10T00:27:36.302Z,8.84
2018-11-10T00:28:36.392Z,8.81
2018-11-10T00:29:36.277Z,8.82
2018-11-10T00:30:36.482Z,8.82
2018-11-10T00:31:36.347Z,8.79
2018-11-10T00:32:36.287Z,8.81
2018-11-10T00:33:36.477Z,8.82
2018-11-10T00:34:37.108Z,8.78
2018-11-10T00:35:36.260Z,8.81
2018-11-10T00:36:36.286Z,8.78
2018-11-10T00:37:36.287Z,8.77
2018-11-10T00:38:36.431Z,8.78
2018-11-10T00:39:36.438Z,8.81
2018-11-10T00:40:36.272Z,8.78
2018-11-10T00:41:36.292Z,8.79
2018-11-10T00:42:36.353Z,8.79
2018-11-10T00:43:36.485Z,8.72
2018-11-10T00:44:36.337Z,8.76
2018-11-10T00:45:36.289Z,8.76
2018-11-10T00:46:36.262Z,8.76
2018-11-10T00:47:36.409Z,8.72
2018-11-10T00:48:36.252Z,8.72
2018-11-10T00:49:36.316Z,8.72
2018-11-10T00:50:36.339Z,8.75
2018-11-10T00:51:36.356Z,8.76
2018-11-10T00:52:36.272Z,8.76
2018-11-10T00:53:36.311Z,8.75
2018-11-10T00:54:36.287Z,8.76
2018-11-10T00:55:36.275Z,8.72
2018-11-10T00:56:36.297Z,8.74
2018-11-10T00:57:36.254Z,8.71
2018-11-10T00:58:36.279Z,8.72
2018-11-10T00:59:36.247Z,8.76
2018-11-10T01:00:36.453Z,8.75
2018-11-10T01:01:36.301Z,8.77
2018-11-10T01:02:36.242Z,8.75
2018-11-10T01:03:36.276Z,8.79
2018-11-10T01:04:36.369Z,8.75
2018-11-10T01:05:36.870Z,8.77
2018-11-10T01:06:36.340Z,8.76
2018-11-10T01:07:36.238Z,8.75
2018-11-10T01:08:36.342Z,8.75
2018-11-10T01:09:36.245Z,8.74
2018-11-10T01:10:36.269Z,8.75
2018-11-10T01:11:36.261Z,8.73
2018-11-10T01:12:36.402Z,8.73
2018-11-10T01:13:36.437Z,8.72
2018-11-10T01:14:36.321Z,8.76
2018-11-10T01:15:36.325Z,8.72
2018-11-10T01:16:36.231Z,8.74
2018-11-10T01:17:36.200Z,8.77
2018-11-10T01:18:36.413Z,8.78
2018-11-10T01:19:36.338Z,8.81
2018-11-10T01:20:36.315Z,8.84
2018-11-10T01:21:36.226Z,8.79
2018-11-10T01:22:36.236Z,8.84
2018-11-10T01:23:36.265Z,8.82
2018-11-10T01:24:36.327Z,8.83
2018-11-10T01:25:36.493Z,8.82
2018-11-10T01:26:36.230Z,8.83
2018-11-10T01:27:36.704Z,8.82
2018-11-10T01:28:36.232Z,8.83
2018-11-10T01:29:36.323Z,8.81
2018-11-10T01:30:36.409Z,8.82
2018-11-10T01:31:36.471Z,8.82
2018-11-10T01:32:36.274Z,8.84
2018-11-10T01:33:36.339Z,8.84
2018-11-10T01:34:36.188Z,8.85
2018-11-10T01:35:36.332Z,8.86
2018-11-10T01:36:36.234Z,8.85
2018-11-10T01:37:36.178Z,8.88
2018-11-10T01:38:36.279Z,8.87
2018-11-10T01:39:36.185Z,8.89
2018-11-10T01:40:36.262Z,8.85
2018-11-10T01:41:36.238Z,8.87
2018-11-10T01:42:36.189Z,8.85
2018-11-10T01:43:36.214Z,8.88
2018-11-10T01:44:36.250Z,8.88
2018-11-10T01:45:36.175Z,8.89
2018-11-10T01:46:36.167Z,8.86
2018-11-10T01:47:36.180Z,8.88
2018-11-10T01:48:36.216Z,8.86
2018-11-10T01:49:36.336Z,8.86
2018-11-10T01:50:36.228Z,8.89
2018-11-10T01:51:36.157Z,8.87
2018-11-10T01:52:36.174Z,8.9
2018-11-10T01:53:36.276Z,8.87
2018-11-10T01:54:36.376Z,8.89
2018-11-10T01:55:36.171Z,8.9
2018-11-10T01:56:36.601Z,8.9
2018-11-10T01:57:36.207Z,8.89
2018-11-10T01:58:36.243Z,8.89
2018-11-10T01:59:36.426Z,8.9
2018-11-10T02:00:36.379Z,8.9
2018-11-10T02:01:36.200Z,8.87
2018-11-10T02:02:36.405Z,8.86
2018-11-10T02:03:36.263Z,8.85
2018-11-10T02:04:36.185Z,8.87
2018-11-10T02:05:36.300Z,8.84
2018-11-10T02:06:36.814Z,8.83
2018-11-10T02:07:36.236Z,8.85
2018-11-10T02:08:36.313Z,8.87
2018-11-10T02:09:36.267Z,8.84
2018-11-10T02:10:36.562Z,8.85
2018-11-10T02:11:36.351Z,8.88
2018-11-10T02:12:36.257Z,8.87
2018-11-10T02:13:36.345Z,8.86
2018-11-10T02:14:36.521Z,8.86
2018-11-10T02:15:36.421Z,8.86
2018-11-10T02:16:36.232Z,8.84
2018-11-10T02:17:36.139Z,8.84
2018-11-10T02:18:36.372Z,8.85
2018-11-10T02:19:36.255Z,8.83
2018-11-10T02:20:36.121Z,8.83
2018-11-10T02:21:36.248Z,8.84
2018-11-10T02:22:36.291Z,8.85
2018-11-10T02:23:36.163Z,8.88
2018-11-10T02:24:36.203Z,8.89
2018-11-10T02:25:36.329Z,8.92
2018-11-10T02:26:36.220Z,8.91
2018-11-10T02:27:36.142Z,8.92
2018-11-10T02:28:36.249Z,8.93
2018-11-10T02:29:36.288Z,8.9
2018-11-10T02:30:36.124Z,8.9
2018-11-10T02:31:36.164Z,8.91
2018-11-10T02:32:36.205Z,8.92
2018-11-10T02:33:36.216Z,8.9
2018-11-10T02:34:36.273Z,8.9
2018-11-10T02:35:36.332Z,8.88
2018-11-10T02:36:36.207Z,8.91
2018-11-10T02:37:36.144Z,8.91
2018-11-10T02:38:37.198Z,8.91
2018-11-10T02:39:36.140Z,8.9
2018-11-10T02:40:36.147Z,8.91
2018-11-10T02:41:36.121Z,8.91
2018-11-10T02:42:36.379Z,8.92
2018-11-10T02:43:36.193Z,8.91
2018-11-10T02:44:36.203Z,8.93
2018-11-10T02:45:36.328Z,8.97
2018-11-10T02:46:36.266Z,8.98
2018-11-10T02:47:36.230Z,8.98
2018-11-10T02:48:36.236Z,8.98
2018-11-10T02:49:36.143Z,8.97
2018-11-10T02:50:36.253Z,8.96
2018-11-10T02:51:36.142Z,8.97
2018-11-10T02:52:36.395Z,8.97
2018-11-10T02:53:36.393Z,8.96
2018-11-10T02:54:36.245Z,8.97
2018-11-10T02:55:36.199Z,8.97
2018-11-10T02:56:36.156Z,8.98
2018-11-10T02:57:36.412Z,8.98
2018-11-10T02:58:36.063Z,8.99
2018-11-10T02:59:36.086Z,8.99
2018-11-10T03:00:36.190Z,8.99
2018-11-10T03:01:36.158Z,8.98
2018-11-10T03:02:36.349Z,8.95
2018-11-10T03:03:36.306Z,8.92
2018-11-10T03:04:36.259Z,8.91
2018-11-10T03:05:36.195Z,8.92
2018-11-10T03:06:36.524Z,8.91
2018-11-10T03:07:36.193Z,8.94
2018-11-10T03:08:36.045Z,8.93
2018-11-10T03:09:36.079Z,8.95
2018-11-10T03:10:36.641Z,8.89
2018-11-10T03:11:36.057Z,8.89
2018-11-10T03:12:36.100Z,8.91
2018-11-10T03:13:36.114Z,8.89
2018-11-10T03:14:36.081Z,8.9
2018-11-10T03:15:36.061Z,8.9
2018-11-10T03:16:36.437Z,8.88
2018-11-10T03:17:36.069Z,8.88
2018-11-10T03:18:36.337Z,8.88
2018-11-10T03:19:36.134Z,8.9
2018-11-10T03:20:36.047Z,8.9
2018-11-10T03:21:36.048Z,8.87
2018-11-10T03:22:36.032Z,8.91
2018-11-10T03:23:36.006Z,8.91
2018-11-10T03:24:36.139Z,8.9
2018-11-10T03:25:36.052Z,8.89
2018-11-10T03:26:36.027Z,8.89
2018-11-10T03:27:36.035Z,8.88
2018-11-10T03:28:36.037Z,8.87
2018-11-10T03:29:36.188Z,8.89
2018-11-10T03:30:39.870Z,8.85
2018-11-10T03:31:36.223Z,8.88
2018-11-10T03:32:36.039Z,8.89
2018-11-10T03:33:36.119Z,8.89
2018-11-10T03:34:36.015Z,8.9
2018-11-10T03:35:36.094Z,8.89
2018-11-10T03:36:36.063Z,8.89
2018-11-10T03:37:36.412Z,8.9
2018-11-10T03:38:36.086Z,8.89
2018-11-10T03:39:36.242Z,8.85
2018-11-10T03:40:36.026Z,8.85
2018-11-10T03:41:36.206Z,8.84
2018-11-10T03:42:36.280Z,8.81
2018-11-10T03:43:36.130Z,8.83
2018-11-10T03:44:36.042Z,8.78
2018-11-10T03:45:36.148Z,8.78
2018-11-10T03:46:36.197Z,8.79
2018-11-10T03:47:36.104Z,8.78
2018-11-10T03:48:36.398Z,8.77
2018-11-10T03:49:36.039Z,8.79
2018-11-10T03:50:36.023Z,8.78
2018-11-10T03:51:36.024Z,8.77
2018-11-10T03:52:36.147Z,8.79
2018-11-10T03:53:36.373Z,8.8
2018-11-10T03:54:36.301Z,8.81
2018-11-10T03:55:36.181Z,8.8
2018-11-10T03:56:36.018Z,8.83
2018-11-10T03:57:36.038Z,8.8
2018-11-10T03:58:35.979Z,8.82
2018-11-10T03:59:36.408Z,8.81
2018-11-10T04:00:35.987Z,8.79
2018-11-10T04:01:36.189Z,8.79
2018-11-10T04:02:36.137Z,8.82
2018-11-10T04:03:36.183Z,8.82
2018-11-10T04:04:35.974Z,8.8
2018-11-10T04:05:35.954Z,8.8
2018-11-10T04:06:36.068Z,8.81
2018-11-10T04:07:36.273Z,8.82
2018-11-10T04:08:36.204Z,8.83
2018-11-10T04:09:36.211Z,8.82
2018-11-10T04:10:36.197Z,8.8
2018-11-10T04:11:36.016Z,8.82
2018-11-10T04:12:35.969Z,8.84
2018-11-10T04:13:36.148Z,8.82
2018-11-10T04:14:36.023Z,8.83
2018-11-10T04:15:36.193Z,8.8
2018-11-10T04:16:36.051Z,8.82
2018-11-10T04:17:36.310Z,8.83
2018-11-10T04:18:36.070Z,8.83
2018-11-10T04:19:35.974Z,8.84
2018-11-10T04:20:35.939Z,8.84
2018-11-10T04:21:36.411Z,8.84
2018-11-10T04:22:36.729Z,8.83
2018-11-10T04:23:36.045Z,8.83
2018-11-10T04:24:36.110Z,8.84
2018-11-10T04:25:36.004Z,8.84
2018-11-10T04:26:36.344Z,8.84
2018-11-10T04:27:35.986Z,8.82
2018-11-10T04:28:36.444Z,8.81
2018-11-10T04:29:36.042Z,8.83
2018-11-10T04:30:36.116Z,8.84
2018-11-10T04:31:36.180Z,8.83
2018-11-10T04:32:36.246Z,8.85
2018-11-10T04:33:36.060Z,8.81
2018-11-10T04:34:36.184Z,8.79
2018-11-10T04:35:35.970Z,8.82
2018-11-10T04:36:36.122Z,8.82
2018-11-10T04:37:35.931Z,8.79
2018-11-10T04:38:35.936Z,8.81
2018-11-10T04:39:35.974Z,8.77
2018-11-10T04:40:36.193Z,8.79
2018-11-10T04:41:35.941Z,8.79
2018-11-10T04:42:35.964Z,8.79
2018-11-10T04:43:35.916Z,8.78
2018-11-10T04:44:35.916Z,8.77
2018-11-10T04:45:35.920Z,8.78
2018-11-10T04:46:36.076Z,8.79
2018-11-10T04:47:35.926Z,8.77
2018-11-10T04:48:36.064Z,8.78
2018-11-10T04:49:36.422Z,8.79
2018-11-10T04:50:35.987Z,8.8
2018-11-10T04:51:35.947Z,8.83
2018-11-10T04:52:35.953Z,8.81
2018-11-10T04:53:36.043Z,8.83
2018-11-10T04:54:35.976Z,8.84
2018-11-10T04:55:35.899Z,8.83
2018-11-10T04:56:35.974Z,8.83
2018-11-10T04:57:35.878Z,8.79
2018-11-10T04:58:35.920Z,8.79
2018-11-10T04:59:35.928Z,8.79
2018-11-10T05:00:35.906Z,8.79
2018-11-10T05:01:37.421Z,8.79
2018-11-10T05:02:36.139Z,8.85
2018-11-10T05:03:35.968Z,8.82
2018-11-10T05:04:35.880Z,8.83
2018-11-10T05:05:35.940Z,8.81
2018-11-10T05:06:36.291Z,8.82
2018-11-10T05:07:35.865Z,8.83
2018-11-10T05:08:36.027Z,8.78
2018-11-10T05:09:36.230Z,8.78
2018-11-10T05:10:35.975Z,8.79
2018-11-10T05:11:35.897Z,8.8
2018-11-10T05:12:35.855Z,8.79
2018-11-10T05:13:35.894Z,8.79
2018-11-10T05:14:35.902Z,8.78
2018-11-10T05:15:36.072Z,8.79
2018-11-10T05:16:36.118Z,8.79
2018-11-10T05:17:35.889Z,8.79
2018-11-10T05:18:36.061Z,8.81
2018-11-10T05:19:36.005Z,8.78
2018-11-10T05:20:35.896Z,8.78
2018-11-10T05:21:35.887Z,8.78
2018-11-10T05:22:36.072Z,8.76
2018-11-10T05:23:35.880Z,8.74
2018-11-10T05:24:35.979Z,8.75
2018-11-10T05:25:35.867Z,8.76
2018-11-10T05:26:35.958Z,8.74
2018-11-10T05:27:35.890Z,8.73
2018-11-10T05:28:35.875Z,8.73
2018-11-10T05:29:36.000Z,8.71
2018-11-10T05:30:35.878Z,8.72
2018-11-10T05:31:35.888Z,8.72
2018-11-10T05:32:35.852Z,8.75
2018-11-10T05:33:36.110Z,8.75
2018-11-10T05:34:35.974Z,8.73
2018-11-10T05:35:36.005Z,8.75
2018-11-10T05:36:35.974Z,8.72
2018-11-10T05:37:35.928Z,8.72
2018-11-10T05:38:35.971Z,8.72
2018-11-10T05:39:35.942Z,8.74
2018-11-10T05:40:35.820Z,8.75
2018-11-10T05:41:35.871Z,8.72
2018-11-10T05:42:35.928Z,8.71
2018-11-10T05:43:35.992Z,8.71
2018-11-10T05:44:35.848Z,8.73
2018-11-10T05:45:35.989Z,8.72
2018-11-10T05:46:35.942Z,8.72
2018-11-10T05:47:35.846Z,8.69
2018-11-10T05:48:36.027Z,8.69
2018-11-10T05:49:35.833Z,8.72
2018-11-10T05:50:35.878Z,8.72
2018-11-10T05:51:35.914Z,8.73
2018-11-10T05:52:36.193Z,8.73
2018-11-10T05:53:35.897Z,8.75
2018-11-10T05:54:36.206Z,8.75
2018-11-10T05:55:35.920Z,8.77
2018-11-10T05:56:35.892Z,8.74
2018-11-10T05:57:35.845Z,8.76
2018-11-10T05:58:35.807Z,8.75
2018-11-10T05:59:35.819Z,8.78
2018-11-10T06:00:35.892Z,8.77
2018-11-10T06:01:35.814Z,8.77
2018-11-10T06:02:35.972Z,8.77
2018-11-10T06:03:35.943Z,8.75
2018-11-10T06:04:35.856Z,8.77
2018-11-10T06:05:35.858Z,8.75
2018-11-10T06:06:35.938Z,8.76
2018-11-10T06:07:35.971Z,8.73
2018-11-10T06:08:35.867Z,8.74
2018-11-10T06:09:36.683Z,8.71
2018-11-10T06:10:35.891Z,8.71
2018-11-10T06:11:35.917Z,8.71
2018-11-10T06:12:35.840Z,8.72
2018-11-10T06:13:35.788Z,8.73
2018-11-10T06:14:35.978Z,8.71
2018-11-10T06:15:35.797Z,8.71
2018-11-10T06:16:35.830Z,8.73
2018-11-10T06:17:35.816Z,8.76
2018-11-10T06:18:36.317Z,8.72
2018-11-10T06:19:35.767Z,8.73
2018-11-10T06:20:35.815Z,8.71
2018-11-10T06:21:35.805Z,8.74
2018-11-10T06:22:35.778Z,8.73
2018-11-10T06:23:35.817Z,8.73
2018-11-10T06:24:35.830Z,8.75
2018-11-10T06:25:35.824Z,8.72
2018-11-10T06:26:35.816Z,8.71
2018-11-10T06:27:35.794Z,8.71
2018-11-10T06:28:35.784Z,8.71
2018-11-10T06:29:36.162Z,8.7
2018-11-10T06:30:35.886Z,8.72
2018-11-10T06:31:35.771Z,8.71
2018-11-10T06:32:36.656Z,8.71
2018-11-10T06:33:35.786Z,8.72
2018-11-10T06:34:35.988Z,8.73
2018-11-10T06:35:35.922Z,8.71
2018-11-10T06:36:35.817Z,8.74
2018-11-10T06:37:35.814Z,8.75
2018-11-10T06:38:35.854Z,8.73
2018-11-10T06:39:35.854Z,8.76
2018-11-10T06:40:35.804Z,8.74
2018-11-10T06:41:35.947Z,8.73
2018-11-10T06:42:35.779Z,8.76
2018-11-10T06:43:35.846Z,8.77
2018-11-10T06:44:35.814Z,8.77
2018-11-10T06:45:35.862Z,8.77
2018-11-10T06:46:35.748Z,8.77
2018-11-10T06:47:35.761Z,8.78
2018-11-10T06:48:36.080Z,8.79
2018-11-10T06:49:35.902Z,8.79
2018-11-10T06:50:35.916Z,8.79
2018-11-10T06:51:35.936Z,8.82
2018-11-10T06:52:35.963Z,8.8
2018-11-10T06:53:35.908Z,8.82
2018-11-10T06:54:36.167Z,8.83
2018-11-10T06:55:35.882Z,8.84
2018-11-10T06:56:35.769Z,8.84
2018-11-10T06:57:35.765Z,8.84
2018-11-10T06:58:35.864Z,8.84
2018-11-10T06:59:35.735Z,8.85
2018-11-10T07:00:35.800Z,8.86
2018-11-10T07:01:35.875Z,8.88
2018-11-10T07:02:35.805Z,8.89
2018-11-10T07:03:36.175Z,8.9
2018-11-10T07:04:36.878Z,8.9
2018-11-10T07:05:35.912Z,8.9
2018-11-10T07:06:35.710Z,8.9
2018-11-10T07:07:35.741Z,8.91
2018-11-10T07:08:35.899Z,8.92
2018-11-10T07:09:36.841Z,8.93
2018-11-10T07:10:35.725Z,8.96
2018-11-10T07:11:35.835Z,8.97
2018-11-10T07:12:35.697Z,8.97
2018-11-10T07:13:35.783Z,8.98
2018-11-10T07:14:36.178Z,8.98
2018-11-10T07:15:35.727Z,9.01
2018-11-10T07:16:35.752Z,8.99
2018-11-10T07:18:35.833Z,8.99
2018-11-10T07:19:35.914Z,9.02
2018-11-10T07:20:35.847Z,9.04
2018-11-10T07:21:35.790Z,9.03
2018-11-10T07:22:35.725Z,9.05
2018-11-10T07:23:35.766Z,9.05
2018-11-10T07:24:35.705Z,9.08
2018-11-10T07:25:35.821Z,9.06
2018-11-10T07:26:35.716Z,9.07
2018-11-10T07:27:36.167Z,9.08
2018-11-10T07:28:35.960Z,9.1
2018-11-10T07:29:35.815Z,9.12
2018-11-10T07:30:36.391Z,9.16
2018-11-10T07:31:35.889Z,9.13
2018-11-10T07:32:35.869Z,9.15
2018-11-10T07:33:35.691Z,9.13
2018-11-10T07:34:35.860Z,9.15
2018-11-10T07:35:35.769Z,9.15
2018-11-10T07:36:35.712Z,9.16
2018-11-10T07:37:36.798Z,9.17
2018-11-10T07:38:35.692Z,9.17
2018-11-10T07:39:35.725Z,9.18
2018-11-10T07:40:35.784Z,9.19
2018-11-10T07:41:36.076Z,9.19
2018-11-10T07:42:35.859Z,9.21
2018-11-10T07:43:35.677Z,9.21
2018-11-10T07:44:35.906Z,9.2
2018-11-10T07:45:36.678Z,9.22
2018-11-10T07:46:35.641Z,9.24
2018-11-10T07:47:35.820Z,9.25
2018-11-10T07:48:36.078Z,9.27
2018-11-10T07:49:35.708Z,9.25
2018-11-10T07:50:37.137Z,9.25
2018-11-10T07:51:36.095Z,9.26
2018-11-10T07:52:35.680Z,9.28
2018-11-10T07:53:35.697Z,9.28
2018-11-10T07:54:35.669Z,9.26
2018-11-10T07:55:35.662Z,9.29
2018-11-10T07:56:35.699Z,9.29
2018-11-10T07:57:35.620Z,9.29
2018-11-10T07:58:35.647Z,9.3
2018-11-10T07:59:35.970Z,9.3
2018-11-10T08:00:35.639Z,9.31
2018-11-10T08:01:35.649Z,9.3
2018-11-10T08:02:35.657Z,9.31
2018-11-10T08:03:35.694Z,9.32
2018-11-10T08:04:35.808Z,9.34
2018-11-10T08:05:35.677Z,9.33
2018-11-10T08:06:35.962Z,9.35
2018-11-10T08:07:35.648Z,9.35
2018-11-10T08:08:35.672Z,9.36
2018-11-10T08:09:36.479Z,9.36
2018-11-10T08:10:35.767Z,9.37
2018-11-10T08:11:36.077Z,9.39
2018-11-10T08:12:35.734Z,9.4
2018-11-10T08:13:35.702Z,9.38
2018-11-10T08:14:35.707Z,9.42
2018-11-10T08:15:35.696Z,9.42
2018-11-10T08:16:35.608Z,9.42
2018-11-10T08:17:35.636Z,9.46
2018-11-10T08:18:36.750Z,9.45
2018-11-10T08:19:35.706Z,9.48
2018-11-10T08:20:36.468Z,9.48
2018-11-10T08:21:37.861Z,9.5
2018-11-10T08:22:36.446Z,9.52
2018-11-10T08:23:35.635Z,9.54
2018-11-10T08:24:35.712Z,9.53
2018-11-10T08:25:35.722Z,9.54
2018-11-10T08:26:35.788Z,9.54
2018-11-10T08:27:35.753Z,9.56
2018-11-10T08:28:35.908Z,9.56
2018-11-10T08:29:35.778Z,9.57
2018-11-10T08:30:35.726Z,9.61
2018-11-10T08:31:35.678Z,9.6
2018-11-10T08:32:35.666Z,9.62
2018-11-10T08:33:35.608Z,9.62
2018-11-10T08:34:35.639Z,9.63
2018-11-10T08:35:35.843Z,9.66
2018-11-10T08:36:35.605Z,9.64
2018-11-10T08:37:35.662Z,9.66
2018-11-10T08:38:35.565Z,9.66
2018-11-10T08:39:35.649Z,9.67
2018-11-10T08:40:35.615Z,9.67
2018-11-10T08:41:35.710Z,9.68
2018-11-10T08:42:35.604Z,9.67
2018-11-10T08:43:35.791Z,9.68
2018-11-10T08:44:36.051Z,9.7
2018-11-10T08:45:35.622Z,9.69
2018-11-10T08:46:35.612Z,9.71
2018-11-10T08:47:35.598Z,9.72
2018-11-10T08:48:35.578Z,9.71
2018-11-10T08:49:35.591Z,9.73
2018-11-10T08:50:35.605Z,9.7
2018-11-10T08:51:35.639Z,9.75
2018-11-10T08:52:35.683Z,9.74
2018-11-10T08:53:35.662Z,9.74
2018-11-10T08:54:35.567Z,9.75
2018-11-10T08:55:35.747Z,9.77
2018-11-10T08:56:35.633Z,9.75
2018-11-10T08:57:36.441Z,9.78
2018-11-10T08:58:35.580Z,9.79
2018-11-10T08:59:36.414Z,9.8
2018-11-10T09:00:35.683Z,9.82
2018-11-10T09:01:35.599Z,9.82
2018-11-10T09:02:35.769Z,9.85
2018-11-10T09:03:35.635Z,9.86
2018-11-10T09:04:35.582Z,9.85
2018-11-10T09:05:36.290Z,9.86
2018-11-10T09:06:35.846Z,9.87
2018-11-10T09:07:35.602Z,9.92
2018-11-10T09:08:35.591Z,9.91
2018-11-10T09:09:35.804Z,9.93
2018-11-10T09:10:35.546Z,9.96
2018-11-10T09:11:35.541Z,9.98
2018-11-10T09:12:35.580Z,9.98
2018-11-10T09:13:35.625Z,10.01
2018-11-10T09:14:35.647Z,10.02
2018-11-10T09:15:35.654Z,10.04
2018-11-10T09:16:35.556Z,10.03
2018-11-10T09:18:35.619Z,10.09
2018-11-10T09:19:35.569Z,10.09
2018-11-10T09:20:35.543Z,10.12
2018-11-10T09:21:36.171Z,10.12
2018-11-10T09:22:35.564Z,10.15
2018-11-10T09:24:09.561Z,10.21
2018-11-10T09:25:10.500Z,10.21
2018-11-10T09:26:10.988Z,10.24
2018-11-10T09:27:09.309Z,10.24
2018-11-10T09:28:09.328Z,10.28
2018-11-10T09:29:09.548Z,10.29
2018-11-10T09:30:09.394Z,10.31
2018-11-10T09:31:09.321Z,10.34
2018-11-10T09:35:35.681Z,10.49
2018-11-10T09:36:37.276Z,10.49
2018-11-10T09:37:35.673Z,10.5
2018-11-10T09:38:42.429Z,10.58
2018-11-10T09:39:42.662Z,10.59
2018-11-10T09:40:42.420Z,10.6
2018-11-10T09:41:42.605Z,10.61
2018-11-10T09:42:45.513Z,10.63
2018-11-10T09:43:42.460Z,10.67
2018-11-10T09:44:42.416Z,10.68
2018-11-10T09:45:42.454Z,10.69
2018-11-10T09:46:42.433Z,10.71
2018-11-10T09:47:42.733Z,10.73
2018-11-10T09:48:42.431Z,10.74
2018-11-10T09:49:42.820Z,10.78
2018-11-10T09:51:07.229Z,10.83
2018-11-10T09:52:07.299Z,10.82
2018-11-10T09:53:07.104Z,10.81
2018-11-10T09:54:07.228Z,10.84
2018-11-10T09:55:07.233Z,10.85
2018-11-10T09:56:07.129Z,10.86
2018-11-10T09:57:07.171Z,10.89
2018-11-10T09:58:07.483Z,10.9
2018-11-10T09:59:07.182Z,10.91
2018-11-10T10:00:07.206Z,10.93
2018-11-10T10:01:09.071Z,10.96
2018-11-10T10:02:11.723Z,10.97
2018-11-10T10:03:07.215Z,10.97
2018-11-10T10:04:07.088Z,11.02
2018-11-10T10:05:07.071Z,11
2018-11-10T10:06:07.155Z,11.01
2018-11-10T10:07:07.171Z,11.03
2018-11-10T10:08:07.185Z,11.04
2018-11-10T10:09:07.233Z,11.05
2018-11-10T10:10:07.556Z,11.05
2018-11-10T10:11:07.179Z,11.09
2018-11-10T10:12:07.111Z,11.09
2018-11-10T10:13:07.207Z,11.09
2018-11-10T10:14:07.054Z,11.1
2018-11-10T10:15:07.127Z,11.11
2018-11-10T10:16:08.565Z,11.14
2018-11-10T10:17:07.108Z,11.15
2018-11-10T10:18:07.026Z,11.15
2018-11-10T10:19:07.089Z,11.17
2018-11-10T10:20:07.011Z,11.2
2018-11-10T10:21:07.049Z,11.2
2018-11-10T10:22:07.177Z,11.2
2018-11-10T10:23:07.067Z,11.19
2018-11-10T10:24:07.274Z,11.2
2018-11-10T10:25:13.571Z,11.19
2018-11-10T10:26:07.610Z,11.2
2018-11-10T10:27:07.420Z,11.22
2018-11-10T10:28:07.013Z,11.23
2018-11-10T10:29:08.559Z,11.24
2018-11-10T10:30:07.148Z,11.23
2018-11-10T10:31:07.053Z,11.26
2018-11-10T10:32:07.192Z,11.25
2018-11-10T10:33:07.297Z,11.25
2018-11-10T10:34:08.207Z,11.27
2018-11-10T10:35:09.072Z,11.27
2018-11-10T10:36:07.330Z,11.27
2018-11-10T10:37:07.019Z,11.29
2018-11-10T10:38:07.341Z,11.32
2018-11-10T10:39:07.114Z,11.34
2018-11-10T10:40:07.073Z,11.34
2018-11-10T10:41:07.045Z,11.34
2018-11-10T10:42:07.190Z,11.34
2018-11-10T10:43:08.926Z,11.39
2018-11-10T10:44:07.324Z,11.38
2018-11-10T10:45:07.283Z,11.41
2018-11-10T10:46:06.999Z,11.42
2018-11-10T10:47:07.160Z,11.41
2018-11-10T10:48:07.095Z,11.42
2018-11-10T10:49:07.888Z,11.45
2018-11-10T10:50:07.206Z,11.45
2018-11-10T10:51:07.067Z,11.42
2018-11-10T10:52:06.971Z,11.46
2018-11-10T10:53:06.967Z,11.46
2018-11-10T10:54:07.082Z,11.45
2018-11-10T10:55:06.972Z,11.45
2018-11-10T10:56:08.442Z,11.47
2018-11-10T10:57:07.798Z,11.47
2018-11-10T10:58:06.959Z,11.47
2018-11-10T10:59:06.973Z,11.47
2018-11-10T11:00:06.956Z,11.45
2018-11-10T11:01:06.975Z,11.46
2018-11-10T11:02:07.183Z,11.46
2018-11-10T11:03:07.393Z,11.47
2018-11-10T11:04:07.327Z,11.47
2018-11-10T11:05:06.938Z,11.49
2018-11-10T11:06:06.962Z,11.51
2018-11-10T11:07:06.970Z,11.49
2018-11-10T11:08:07.023Z,11.5
2018-11-10T11:09:08.415Z,11.51
2018-11-10T11:10:07.007Z,11.53
2018-11-10T11:11:06.981Z,11.54
2018-11-10T11:12:06.954Z,11.57
2018-11-10T11:13:07.162Z,11.58
2018-11-10T11:14:07.378Z,11.59
2018-11-10T11:15:08.255Z,11.6
2018-11-10T11:16:07.270Z,11.64
2018-11-10T11:17:07.249Z,11.65
2018-11-10T11:18:07.184Z,11.66
2018-11-10T11:19:06.980Z,11.67
2018-11-10T11:21:21.552Z,11.71
2018-11-10T11:22:12.121Z,11.73
2018-11-10T11:23:06.952Z,11.73
2018-11-10T11:24:08.329Z,11.74
2018-11-10T11:25:06.949Z,11.75
2018-11-10T11:26:07.062Z,11.78
2018-11-10T11:27:07.000Z,11.78
2018-11-10T11:28:06.933Z,11.78
2018-11-10T11:29:08.301Z,11.82
2018-11-10T11:30:07.806Z,11.83
2018-11-10T11:31:07.718Z,11.84
2018-11-10T11:32:06.969Z,11.86
2018-11-10T11:33:07.295Z,11.86
2018-11-10T11:34:07.200Z,11.87
2018-11-10T11:35:07.441Z,11.91
2018-11-10T11:36:07.207Z,11.92
2018-11-10T11:37:07.362Z,11.93
2018-11-10T11:38:07.066Z,11.96
2018-11-10T11:39:06.937Z,11.95
2018-11-10T11:40:06.952Z,11.97
2018-11-10T11:41:08.311Z,11.98
2018-11-10T11:42:06.988Z,12.01
2018-11-10T11:43:06.973Z,11.99
2018-11-10T11:44:06.938Z,12.01
2018-11-10T11:45:06.936Z,12.01
2018-11-10T11:46:07.518Z,12.02
2018-11-10T11:47:06.931Z,12.03
2018-11-10T11:48:07.129Z,12.03
2018-11-10T11:49:07.230Z,12.06
2018-11-10T11:50:06.957Z,12.07
2018-11-10T11:51:07.068Z,12.07
2018-11-10T11:52:06.928Z,12.08
2018-11-10T11:53:06.932Z,12.09
2018-11-10T11:54:07.073Z,12.1
2018-11-10T11:55:07.117Z,12.1
2018-11-10T11:56:06.946Z,12.1
2018-11-10T11:57:07.054Z,12.1
2018-11-10T11:58:09.519Z,12.1
2018-11-10T11:59:06.976Z,12.11
2018-11-10T12:00:06.949Z,12.12
2018-11-10T12:01:07.213Z,12.11
2018-11-10T12:02:07.535Z,12.13
2018-11-10T12:03:06.892Z,12.16
2018-11-10T12:04:06.913Z,12.16
2018-11-10T12:05:06.985Z,12.17
2018-11-10T12:06:07.140Z,12.17
2018-11-10T12:07:07.037Z,12.19
2018-11-10T12:08:07.163Z,12.21
2018-11-10T12:09:06.949Z,12.19
2018-11-10T12:10:06.882Z,12.21
2018-11-10T12:11:07.387Z,12.22
2018-11-10T12:12:07.123Z,12.23
2018-11-10T12:13:07.068Z,12.26
2018-11-10T12:14:07.053Z,12.27
2018-11-10T12:15:07.461Z,12.27
2018-11-10T12:16:06.970Z,12.29
2018-11-10T12:17:07.446Z,12.32
2018-11-10T12:18:06.911Z,12.31
2018-11-10T12:19:06.886Z,12.33
2018-11-10T12:20:06.869Z,12.34
2018-11-10T12:21:08.507Z,12.39
2018-11-10T12:22:08.376Z,12.39
2018-11-10T12:23:06.905Z,12.4
2018-11-10T12:24:06.864Z,12.4
2018-11-10T12:25:06.990Z,12.41
2018-11-10T12:26:07.169Z,12.43
2018-11-10T12:27:06.828Z,12.42
2018-11-10T12:28:06.875Z,12.44
2018-11-10T12:29:06.862Z,12.44
2018-11-10T12:30:06.884Z,12.45
2018-11-10T12:31:07.323Z,12.45
2018-11-10T12:32:07.217Z,12.45
2018-11-10T12:33:06.843Z,12.44
2018-11-10T12:34:06.501Z,12.44
2018-11-10T12:35:06.850Z,12.45
2018-11-10T12:36:07.293Z,12.45
2018-11-10T12:37:06.857Z,12.43
2018-11-10T12:38:06.848Z,12.45
2018-11-10T12:39:06.856Z,12.47
2018-11-10T12:40:06.847Z,12.46
2018-11-10T12:41:06.852Z,12.47
2018-11-10T12:42:06.830Z,12.46
2018-11-10T12:43:06.844Z,12.47
2018-11-10T12:44:06.814Z,12.45
2018-11-10T12:45:06.864Z,12.45
2018-11-10T12:46:06.833Z,12.45
2018-11-10T12:47:07.390Z,12.45
2018-11-10T12:48:06.798Z,12.44
2018-11-10T12:49:07.994Z,12.45
2018-11-10T12:50:07.092Z,12.45
2018-11-10T12:51:06.827Z,12.45
2018-11-10T12:52:07.069Z,12.45
2018-11-10T12:53:07.140Z,12.45
2018-11-10T12:54:06.915Z,12.45
2018-11-10T12:55:07.196Z,12.43
2018-11-10T12:56:06.994Z,12.45
2018-11-10T12:57:07.207Z,12.45
2018-11-10T12:58:07.301Z,12.45
2018-11-10T12:59:06.827Z,12.45
2018-11-10T13:00:06.859Z,12.42
2018-11-10T13:01:07.322Z,12.42
2018-11-10T13:02:06.781Z,12.41
2018-11-10T13:03:06.834Z,12.4
2018-11-10T13:04:06.883Z,12.41
2018-11-10T13:05:07.148Z,12.44
2018-11-10T13:06:07.170Z,12.41
2018-11-10T13:07:07.232Z,12.43
2018-11-10T13:08:07.708Z,12.4
2018-11-10T13:09:07.573Z,12.4
2018-11-10T13:10:07.168Z,12.43
2018-11-10T13:11:07.474Z,12.4
2018-11-10T13:12:07.681Z,12.4
2018-11-10T13:13:07.181Z,12.4
2018-11-10T13:14:06.867Z,12.4
2018-11-10T13:16:06.828Z,12.4
2018-11-10T13:17:07.354Z,12.4
2018-11-10T13:18:06.918Z,12.38
2018-11-10T13:19:06.885Z,12.39
2018-11-10T13:20:06.886Z,12.39
2018-11-10T13:21:06.811Z,12.39
2018-11-10T13:22:06.808Z,12.39